Airfield :
LOGIN :

Register | Disclaimer

   EN    FR    IT 

 










Legend :    VFR   Marginal VFR   IFR   Intensive IFR   Very Intensive IFR
Visi :
Ceiling :
>= 8 km
>= 3000ft
5 to 8 km
1000 to 3000 ft
1500m to 5 km
500 to 1000 ft
800 to 1500m
200 to 500 ft
< 800m
< 200 ft
Symbols :   Thunderstorms  Fog  Heavy snow  Heavy precipitations  Wind > 20 kt
SIGMETs :     Misc.  Thunderstorms  Icing  Turbulence  Mountain Waves  Volcanic Ashes







- Airport Elevation : 12 ft
- IATA code : BCN


LEBL - Barcelone

CURRENT METAR :
  • 200630Z 11003KT 070V130 9000 FEW005 SCT010 21/18 Q1014 NOSIG

EXPIRED METARs :
  • 200600Z 16003KT 120V190 7000 SCT005 BKN010 20/19 Q1014 NOSIG
  • 200530Z 17003KT 140V200 9000 FEW007 20/18 Q1014 NOSIG
  • 200500Z 17002KT 8000 NSC 20/17 Q1013 NOSIG
  • 200430Z 00000KT 8000 NSC 20/17 Q1013 NOSIG
  • 200400Z 35002KT 8000 FEW010 19/17 Q1013 NOSIG

TAF AMD TAF LEBL
Valid from the 20 at 06:00 until the 21 at 06:00 UTC


200620Z 2006/2106 VRB03KT 9999 FEW015 TX25/2012Z TN19/2106Z
BECMG 2006/2008 07010KT
TEMPO 2006/2009 BKN010
BECMG 2021/2023 VRB03KT
No reported NOTAMs for that airfield.



MET'MAP, your aeronautical weather chart ! - Copyright ORBIFLY December 2007 - Disclaimer

ORBIFLY MET'MAP TEAM :

Programming & Development : Alexandra Zaïnal
Concept & Development : Baudouin d'Aumeries
Co-Development & Prog : Marc-Olivier Méhu
Technical & hardware support : Manuel Goepfert

Contact : metmap@orbifly.com




SOURCES & CREDITS :

   NOAA